Bamako-Sénou International Airport

Airport
ICAO code: 
GABS
IATA Code: 
BKO
Summary
ICAO Region: 
AFI
Territory: 
Location: 
Bamako, Bamako
Serving: 
Bamako
Elevation: 
1247 ft
Coordinates: 
Aerial View: 
12° 32' 27.334" N, 7° 56' 52.624" W
Metar
Observation
GABS 181030Z 08011KT 050V110 CAVOK 27/M02 Q1018 NOSIG
Station
Bamako / Senou
Date/Time
2022-01-18 10:30:00
Wind direction
80°
Wind speed
11 kts
Lowest cloud amount
clouds and visibility OK
Temperature
27°C
Dew point
-2°C
Humidity
14%
QNH
1018 hPa
Weather condition
n/a

Bamako's Modibo Keita International Airport (formerly Bamako–Sénou International Airport) is Mali's main airport located approximately 15 km south of downtown Bamako, the capital of Mali in West Africa.

Climatology

Tropical savannah climate (Köppen climate classification Aw)

Runways

Designator Length Width Surface Rops
6/24 2706 45 ASP Yes/Yes
Airport map: 
Aerial View: 

SKYbrary Partners:

Safety knowledge contributed by: